createdAt,value
2019-04-16T00:02:01.085Z,-0.60
2019-04-16T00:04:34.308Z,-0.60
2019-04-16T00:07:22.822Z,-0.60
2019-04-16T00:10:05.283Z,-0.60
2019-04-16T00:12:41.301Z,-0.70
2019-04-16T00:15:10.023Z,-0.70
2019-04-16T00:17:38.549Z,-0.80
2019-04-16T00:20:07.265Z,-0.80
2019-04-16T00:22:39.959Z,-0.80
2019-04-16T00:25:08.764Z,-0.80
2019-04-16T00:27:37.282Z,-0.90
2019-04-16T00:30:07.598Z,-0.90
2019-04-16T00:32:37.985Z,-0.90
2019-04-16T00:35:06.677Z,-0.90
2019-04-16T00:37:35.205Z,-1.00
2019-04-16T00:40:04.495Z,-1.00
2019-04-16T00:42:32.957Z,-1.10
2019-04-16T00:45:01.713Z,-1.10
2019-04-16T00:47:30.373Z,-1.10
2019-04-16T00:49:59.591Z,-1.10
2019-04-16T00:52:28.329Z,-1.10
2019-04-16T00:54:56.997Z,-1.10
2019-04-16T00:57:25.521Z,-1.10
2019-04-16T00:59:56.362Z,-1.00
2019-04-16T01:02:24.307Z,-1.00
2019-04-16T01:04:52.827Z,-0.90
2019-04-16T01:07:21.337Z,-0.90
2019-04-16T01:09:49.875Z,-0.80
2019-04-16T01:12:18.351Z,-0.80
2019-04-16T01:14:46.832Z,-0.70
2019-04-16T01:17:15.532Z,-0.70
2019-04-16T01:19:44.017Z,-0.60
2019-04-16T01:22:15.720Z,-0.70
2019-04-16T01:24:42.843Z,-0.70
2019-04-16T01:27:11.394Z,-0.60
2019-04-16T01:29:39.958Z,-0.60
2019-04-16T01:32:12.778Z,-0.60
2019-04-16T01:34:48.675Z,-0.60
2019-04-16T01:37:18.769Z,-0.60
2019-04-16T01:40:04.035Z,-0.70
2019-04-16T01:42:32.567Z,-0.70
2019-04-16T01:45:01.018Z,-0.70
2019-04-16T01:47:29.576Z,-0.70
2019-04-16T01:49:58.109Z,-0.70
2019-04-16T01:52:26.569Z,-0.70
2019-04-16T01:54:55.692Z,-0.80
2019-04-16T01:57:24.340Z,-0.70
2019-04-16T01:59:52.803Z,-0.80
2019-04-16T02:02:21.367Z,-0.80
2019-04-16T02:04:52.107Z,-0.80
2019-04-16T02:07:20.009Z,-0.80
2019-04-16T02:09:48.531Z,-0.90
2019-04-16T02:12:16.984Z,-0.90
2019-04-16T02:14:47.323Z,-0.80
2019-04-16T02:17:15.656Z,-0.90
2019-04-16T02:19:44.098Z,-0.80
2019-04-16T02:22:13.959Z,-0.80
2019-04-16T02:24:42.722Z,-0.90
2019-04-16T02:27:11.201Z,-0.90
2019-04-16T02:29:39.664Z,-0.90
2019-04-16T02:32:08.813Z,-0.90
2019-04-16T02:34:37.353Z,-0.90
2019-04-16T02:37:05.888Z,-0.90
2019-04-16T02:39:47.695Z,-0.90
2019-04-16T02:42:05.028Z,-0.90
2019-04-16T02:44:33.691Z,-0.90
2019-04-16T02:47:06.615Z,-0.90
2019-04-16T02:49:32.492Z,-0.80
2019-04-16T02:52:03.037Z,-0.80
2019-04-16T02:54:39.063Z,-0.80
2019-04-16T02:57:09.307Z,-0.80
2019-04-16T02:59:47.316Z,-0.80
2019-04-16T03:02:26.661Z,-0.90
2019-04-16T03:05:05.954Z,-0.90
2019-04-16T03:07:34.417Z,-0.90
2019-04-16T03:10:03.039Z,-0.90
2019-04-16T03:12:31.540Z,-0.90
2019-04-16T03:15:01.070Z,-0.90
2019-04-16T03:17:34.490Z,-0.90
2019-04-16T03:20:08.324Z,-0.90
2019-04-16T03:22:36.292Z,-0.90
2019-04-16T03:25:12.341Z,-0.80
2019-04-16T03:27:37.141Z,-0.80
2019-04-16T03:30:08.519Z,-0.90
2019-04-16T03:32:38.750Z,-0.90
2019-04-16T03:35:07.306Z,-0.90
2019-04-16T03:37:35.766Z,-0.90
2019-04-16T03:40:16.221Z,-0.90
2019-04-16T03:42:49.014Z,-1.00
2019-04-16T03:45:17.608Z,-0.90
2019-04-16T03:47:51.021Z,-0.90
2019-04-16T03:50:16.477Z,-1.00
2019-04-16T03:52:45.740Z,-0.90
2019-04-16T03:55:14.632Z,-1.00
2019-04-16T03:57:43.123Z,-0.90
2019-04-16T04:00:13.004Z,-0.90
2019-04-16T04:02:41.797Z,-0.90
2019-04-16T04:05:10.626Z,-0.90
2019-04-16T04:07:43.864Z,-0.90
2019-04-16T04:10:09.624Z,-0.90
2019-04-16T04:12:38.132Z,-0.90
2019-04-16T04:15:06.967Z,-0.90
2019-04-16T04:17:38.581Z,-0.90
2019-04-16T04:20:07.811Z,-0.90
2019-04-16T04:22:36.333Z,-0.80
2019-04-16T04:25:06.937Z,-0.80
2019-04-16T04:27:35.519Z,-0.70
2019-04-16T04:30:07.432Z,-0.70
2019-04-16T04:32:36.304Z,-0.60
2019-04-16T04:35:06.113Z,-0.60
2019-04-16T04:37:34.640Z,-0.50
2019-04-16T04:40:03.648Z,-0.50
2019-04-16T04:42:32.221Z,-0.40
2019-04-16T04:45:00.714Z,-0.40
2019-04-16T04:47:29.204Z,-0.30
2019-04-16T04:49:59.534Z,-0.30
2019-04-16T04:52:27.873Z,-0.20
2019-04-16T04:54:56.335Z,-0.10
2019-04-16T04:57:24.909Z,0.00
2019-04-16T04:59:53.465Z,0.00
2019-04-16T05:02:22.024Z,0.10
2019-04-16T05:04:52.689Z,0.10
2019-04-16T05:07:21.861Z,0.20
2019-04-16T05:09:50.325Z,0.20
2019-04-16T05:12:21.541Z,0.30
2019-04-16T05:14:58.455Z,0.40
2019-04-16T05:17:26.872Z,0.40
2019-04-16T05:19:55.580Z,0.50
2019-04-16T05:22:24.040Z,0.60
2019-04-16T05:24:52.921Z,0.70
2019-04-16T05:27:21.379Z,0.80
2019-04-16T05:29:49.835Z,1.00
2019-04-16T05:32:18.429Z,1.20
2019-04-16T05:34:46.952Z,1.40
2019-04-16T05:37:16.419Z,1.60
2019-04-16T05:39:45.627Z,1.80
2019-04-16T05:42:14.093Z,2.00
2019-04-16T05:44:42.622Z,2.20
2019-04-16T05:47:11.321Z,2.40
2019-04-16T05:49:39.877Z,2.50
2019-04-16T05:52:08.802Z,2.70
2019-04-16T05:54:41.463Z,2.90
2019-04-16T05:57:27.466Z,3.00
2019-04-16T05:59:56.274Z,3.10
2019-04-16T06:02:32.533Z,3.20
2019-04-16T06:05:01.041Z,3.20
2019-04-16T06:07:29.556Z,3.20
2019-04-16T06:09:58.024Z,3.20
2019-04-16T06:12:28.188Z,3.30
2019-04-16T06:15:01.417Z,3.20
2019-04-16T06:20:34.857Z,3.20
2019-04-16T06:23:22.289Z,3.20
2019-04-16T06:25:55.384Z,3.20
2019-04-16T06:28:37.813Z,3.20
2019-04-16T06:31:17.248Z,3.30
2019-04-16T06:33:50.523Z,3.30
2019-04-16T06:36:23.816Z,3.20
2019-04-16T06:38:57.797Z,3.30
2019-04-16T06:41:41.418Z,3.40
2019-04-16T06:44:04.151Z,3.50
2019-04-16T06:46:39.465Z,3.60
2019-04-16T06:49:14.313Z,3.70
2019-04-16T06:52:00.205Z,3.90
2019-04-16T06:54:46.395Z,4.00
2019-04-16T06:57:32.815Z,4.10
2019-04-16T07:00:21.223Z,4.20
2019-04-16T07:03:02.566Z,4.30
2019-04-16T07:05:35.035Z,4.40
2019-04-16T07:08:05.248Z,4.60
2019-04-16T07:10:44.327Z,4.70
2019-04-16T07:13:09.969Z,4.80
2019-04-16T07:15:35.913Z,4.90
2019-04-16T07:18:05.607Z,5.00
2019-04-16T07:20:34.828Z,5.10
2019-04-16T07:23:03.333Z,5.20
2019-04-16T07:25:32.197Z,5.30
2019-04-16T07:28:06.545Z,5.40
2019-04-16T07:30:48.814Z,5.40
2019-04-16T07:33:31.101Z,5.40
2019-04-16T07:36:03.267Z,5.50
2019-04-16T07:38:36.087Z,5.50
2019-04-16T07:41:12.511Z,5.50
2019-04-16T07:44:04.500Z,5.50
2019-04-16T07:46:49.273Z,5.30
2019-04-16T07:49:26.388Z,5.30
2019-04-16T07:51:57.479Z,5.40
2019-04-16T07:54:27.577Z,5.50
2019-04-16T07:56:56.258Z,5.60
2019-04-16T07:59:24.844Z,5.70
2019-04-16T08:01:53.378Z,5.90
2019-04-16T08:04:28.661Z,6.00
2019-04-16T08:06:52.045Z,6.00
2019-04-16T08:09:20.564Z,6.10
2019-04-16T08:11:49.026Z,6.30
2019-04-16T08:14:17.678Z,6.30
2019-04-16T08:16:47.523Z,6.40
2019-04-16T08:19:16.464Z,6.40
2019-04-16T08:21:44.987Z,6.50
2019-04-16T08:24:15.078Z,6.60
2019-04-16T08:26:45.054Z,6.70
2019-04-16T08:29:13.920Z,6.80
2019-04-16T08:31:44.873Z,7.00
2019-04-16T08:34:13.516Z,7.10
2019-04-16T08:36:42.033Z,7.10
2019-04-16T08:39:12.454Z,7.10
2019-04-16T08:41:40.974Z,7.20
2019-04-16T08:44:10.670Z,7.30
2019-04-16T08:46:40.134Z,7.40
2019-04-16T08:49:09.510Z,7.50
2019-04-16T08:51:38.097Z,7.50
2019-04-16T08:54:06.676Z,7.60
2019-04-16T08:56:35.246Z,7.60
2019-04-16T08:59:09.549Z,7.70
2019-04-16T09:01:35.463Z,7.70
2019-04-16T09:04:04.158Z,7.80
2019-04-16T09:06:32.816Z,7.90
2019-04-16T09:09:12.439Z,8.00
2019-04-16T09:11:35.331Z,8.00
2019-04-16T09:14:05.994Z,8.00
2019-04-16T09:16:36.107Z,8.40
2019-04-16T09:19:06.193Z,8.30
2019-04-16T09:21:34.706Z,8.40
2019-04-16T09:24:21.155Z,8.30
2019-04-16T09:26:52.674Z,8.40
2019-04-16T09:29:40.384Z,8.30
2019-04-16T09:32:28.193Z,8.30
2019-04-16T09:35:10.729Z,8.40
2019-04-16T09:37:45.429Z,8.40
2019-04-16T09:40:32.507Z,8.40
2019-04-16T09:43:15.698Z,8.70
2019-04-16T09:45:33.867Z,8.60
2019-04-16T09:48:03.903Z,8.60
2019-04-16T09:50:32.844Z,8.50
2019-04-16T09:53:02.056Z,8.50
2019-04-16T09:55:30.634Z,8.50
2019-04-16T09:58:05.862Z,8.40
2019-04-16T10:00:41.708Z,8.40
2019-04-16T10:03:11.878Z,8.60
2019-04-16T10:05:40.345Z,8.80
2019-04-16T10:08:12.597Z,9.10
2019-04-16T10:10:41.915Z,9.20
2019-04-16T10:13:10.380Z,9.40
2019-04-16T10:15:38.913Z,9.30
2019-04-16T10:18:07.506Z,9.30
2019-04-16T10:20:36.108Z,9.10
2019-04-16T10:23:06.363Z,9.00
2019-04-16T10:25:34.925Z,9.10
2019-04-16T10:28:05.684Z,9.20
2019-04-16T10:30:38.495Z,9.30
2019-04-16T10:33:07.161Z,9.30
2019-04-16T10:35:35.699Z,9.20
2019-04-16T10:38:05.970Z,9.10
2019-04-16T10:40:39.109Z,9.20
2019-04-16T10:43:25.757Z,9.30
2019-04-16T10:46:01.681Z,9.50
2019-04-16T10:48:37.667Z,9.60
2019-04-16T10:51:16.429Z,9.60
2019-04-16T10:53:46.658Z,9.60
2019-04-16T10:56:28.987Z,9.60
2019-04-16T10:59:04.836Z,9.40
2019-04-16T11:01:35.335Z,9.30
2019-04-16T11:04:17.451Z,9.50
2019-04-16T11:06:47.738Z,9.80
2019-04-16T11:09:16.253Z,10.00
2019-04-16T11:11:44.799Z,10.10
2019-04-16T11:14:13.524Z,10.20
2019-04-16T11:16:43.767Z,10.20
2019-04-16T11:19:12.396Z,10.20
2019-04-16T11:21:41.159Z,10.30
2019-04-16T11:24:09.884Z,10.40
2019-04-16T11:26:38.415Z,10.40
2019-04-16T11:29:07.077Z,10.30
2019-04-16T11:31:35.742Z,10.30
2019-04-16T11:34:05.890Z,10.40
2019-04-16T11:36:35.314Z,10.60
2019-04-16T11:39:05.628Z,10.50
2019-04-16T11:41:34.125Z,10.30
2019-04-16T11:44:14.254Z,10.40
2019-04-16T11:46:33.027Z,10.30
2019-04-16T11:49:01.609Z,10.20
2019-04-16T11:51:30.190Z,10.20
2019-04-16T11:53:58.790Z,10.20
2019-04-16T11:56:27.280Z,10.10
2019-04-16T11:58:57.611Z,10.20
2019-04-16T12:01:33.585Z,10.30
2019-04-16T12:04:03.773Z,10.40
2019-04-16T12:06:39.800Z,10.30
2019-04-16T12:09:27.282Z,10.40
2019-04-16T12:12:06.547Z,10.30
2019-04-16T12:14:43.672Z,10.50
2019-04-16T12:17:30.365Z,10.40
2019-04-16T12:20:03.407Z,10.20
2019-04-16T12:22:33.558Z,10.40
2019-04-16T12:25:03.783Z,10.60
2019-04-16T12:27:36.692Z,10.70
2019-04-16T12:30:19.226Z,10.80
2019-04-16T12:32:55.663Z,10.80
2019-04-16T12:35:35.598Z,10.60
2019-04-16T12:38:06.053Z,10.80
2019-04-16T12:40:43.577Z,10.90
2019-04-16T12:43:25.835Z,10.90
2019-04-16T12:45:56.113Z,11.00
2019-04-16T12:48:41.564Z,11.30
2019-04-16T12:51:11.712Z,11.20
2019-04-16T12:53:53.414Z,11.10
2019-04-16T12:56:41.165Z,11.20
2019-04-16T12:59:29.313Z,11.20
2019-04-16T13:02:12.205Z,11.20
2019-04-16T13:04:45.693Z,11.20
2019-04-16T13:07:30.242Z,11.10
2019-04-16T13:10:10.960Z,11.10
2019-04-16T13:12:59.584Z,11.20
2019-04-16T13:15:32.283Z,11.30
2019-04-16T13:18:08.262Z,11.10
2019-04-16T13:20:50.758Z,11.10
2019-04-16T13:23:39.381Z,11.10
2019-04-16T13:26:15.379Z,11.10
2019-04-16T13:28:43.821Z,11.10
2019-04-16T13:31:12.292Z,11.20
2019-04-16T13:33:43.573Z,11.00
2019-04-16T13:36:11.201Z,11.00
2019-04-16T13:38:44.037Z,11.10
2019-04-16T13:41:12.634Z,11.10
2019-04-16T13:43:59.073Z,11.30
2019-04-16T13:46:29.621Z,11.20
2019-04-16T13:49:02.302Z,11.30
2019-04-16T13:51:31.827Z,11.20
2019-04-16T13:54:04.981Z,11.40
2019-04-16T13:56:40.558Z,11.40
2019-04-16T13:59:19.817Z,11.40
2019-04-16T14:01:49.945Z,11.40
2019-04-16T14:04:18.491Z,11.50
2019-04-16T14:06:47.073Z,11.50
2019-04-16T14:09:15.547Z,11.30
2019-04-16T14:11:44.019Z,11.40
2019-04-16T14:14:18.158Z,11.20
2019-04-16T14:16:46.258Z,11.30
2019-04-16T14:19:14.794Z,11.40
2019-04-16T14:21:43.309Z,11.50
2019-04-16T14:24:12.902Z,11.60
2019-04-16T14:26:41.601Z,11.50
2019-04-16T14:29:10.239Z,11.60
2019-04-16T14:31:38.771Z,11.60
2019-04-16T14:34:11.916Z,11.60
2019-04-16T14:36:40.582Z,11.70
2019-04-16T14:39:29.091Z,11.90
2019-04-16T14:41:57.609Z,12.20
2019-04-16T14:44:27.774Z,12.80
2019-04-16T14:47:00.052Z,13.30
2019-04-16T14:49:26.533Z,13.50
2019-04-16T14:51:58.042Z,14.00
2019-04-16T14:54:42.337Z,14.20
2019-04-16T14:57:11.244Z,14.20
2019-04-16T14:59:44.762Z,14.30
2019-04-16T15:02:17.658Z,14.80
2019-04-16T15:05:03.329Z,14.90
2019-04-16T15:07:39.903Z,15.70
2019-04-16T15:10:19.222Z,15.70
2019-04-16T15:12:52.136Z,16.00
2019-04-16T15:15:25.089Z,16.00
2019-04-16T15:18:10.888Z,16.20
2019-04-16T15:20:47.063Z,16.30
2019-04-16T15:23:33.670Z,16.90
2019-04-16T15:26:03.917Z,17.20
2019-04-16T15:28:42.980Z,17.10
2019-04-16T15:31:32.721Z,16.80
2019-04-16T15:34:10.225Z,16.50
2019-04-16T15:36:39.310Z,16.70
2019-04-16T15:39:12.649Z,16.70
2019-04-16T15:42:00.943Z,16.30
2019-04-16T15:44:34.009Z,16.20
2019-04-16T15:47:04.456Z,16.30
2019-04-16T15:49:40.306Z,16.80
2019-04-16T15:52:19.240Z,16.50
2019-04-16T15:54:55.408Z,15.70
2019-04-16T15:57:40.691Z,15.20
2019-04-16T16:00:23.011Z,14.80
2019-04-16T16:03:05.751Z,14.80
2019-04-16T16:05:48.338Z,14.40
2019-04-16T16:08:18.486Z,13.50
2019-04-16T16:10:57.674Z,13.20
2019-04-16T16:13:27.143Z,13.00
2019-04-16T16:15:55.776Z,12.80
2019-04-16T16:18:24.377Z,12.60
2019-04-16T16:20:52.928Z,12.50
2019-04-16T16:23:21.467Z,12.00
2019-04-16T16:25:50.073Z,12.00
2019-04-16T16:28:18.675Z,12.50
2019-04-16T16:30:47.209Z,12.80
2019-04-16T16:33:15.725Z,12.50
2019-04-16T16:35:57.032Z,11.90
2019-04-16T16:38:14.988Z,11.30
2019-04-16T16:40:43.581Z,11.10
2019-04-16T16:43:14.175Z,11.00
2019-04-16T16:45:56.282Z,10.80
2019-04-16T16:48:26.155Z,10.60
2019-04-16T16:50:54.692Z,10.50
2019-04-16T16:53:27.469Z,10.70
2019-04-16T16:55:57.592Z,10.80
2019-04-16T16:58:27.756Z,10.70
2019-04-16T17:01:13.787Z,10.80
2019-04-16T17:03:58.936Z,10.70
2019-04-16T17:06:31.239Z,10.40
2019-04-16T17:08:59.830Z,10.10
2019-04-16T17:11:28.447Z,10.10
2019-04-16T17:14:01.451Z,10.00
2019-04-16T17:16:27.262Z,9.80
2019-04-16T17:18:56.239Z,9.80
2019-04-16T17:21:25.029Z,9.60
2019-04-16T17:23:53.815Z,9.60
2019-04-16T17:26:22.377Z,9.50
2019-04-16T17:28:50.943Z,9.30
2019-04-16T17:31:19.533Z,9.10
2019-04-16T17:33:47.992Z,9.00
2019-04-16T17:36:16.653Z,8.80
2019-04-16T17:38:45.177Z,8.80
2019-04-16T17:41:33.670Z,8.60
2019-04-16T17:44:06.965Z,8.50
2019-04-16T17:46:43.097Z,8.30
2019-04-16T17:49:27.944Z,8.00
2019-04-16T17:52:01.168Z,7.70
2019-04-16T17:54:31.292Z,7.60
2019-04-16T17:57:13.567Z,7.50
2019-04-16T17:59:43.739Z,7.30
2019-04-16T18:02:30.379Z,7.20
2019-04-16T18:05:03.260Z,7.10
2019-04-16T18:07:51.270Z,7.00
2019-04-16T18:10:33.756Z,6.80
2019-04-16T18:13:10.795Z,6.70
2019-04-16T18:15:50.236Z,6.60
2019-04-16T18:18:32.721Z,6.50
2019-04-16T18:21:20.806Z,6.40
2019-04-16T18:23:57.255Z,6.30
2019-04-16T18:26:27.531Z,6.20
2019-04-16T18:31:58.634Z,6.10
2019-04-16T18:34:28.968Z,6.00
2019-04-16T18:36:59.373Z,6.00
2019-04-16T18:39:38.576Z,5.90
2019-04-16T18:45:16.942Z,5.80
2019-04-16T18:48:01.423Z,5.70
2019-04-16T18:51:19.713Z,5.60
2019-04-16T18:53:48.238Z,5.60
2019-04-16T18:56:16.760Z,5.50
2019-04-16T18:58:45.390Z,5.50
2019-04-16T19:01:25.103Z,5.40
2019-04-16T19:03:53.811Z,5.40
2019-04-16T19:06:22.398Z,5.30
2019-04-16T19:08:50.879Z,5.30
2019-04-16T19:11:20.457Z,5.20
2019-04-16T19:13:49.314Z,5.20
2019-04-16T19:16:17.852Z,5.20
2019-04-16T19:18:46.425Z,5.10
2019-04-16T19:21:14.878Z,5.10
2019-04-16T19:23:43.420Z,5.00
2019-04-16T19:26:12.584Z,5.00
2019-04-16T19:28:41.101Z,5.00
2019-04-16T19:31:09.782Z,4.90
2019-04-16T19:33:38.643Z,4.80
2019-04-16T19:36:07.330Z,4.80
2019-04-16T19:38:39.470Z,4.80
2019-04-16T19:41:06.444Z,4.70
2019-04-16T19:43:35.707Z,4.70
2019-04-16T19:46:04.372Z,4.70
2019-04-16T19:48:35.614Z,4.60
2019-04-16T19:51:03.348Z,4.60
2019-04-16T19:53:32.009Z,4.50
2019-04-16T19:56:00.593Z,4.50
2019-04-16T19:58:29.243Z,4.50
2019-04-16T20:00:59.140Z,4.50
2019-04-16T20:03:30.438Z,4.50
2019-04-16T20:05:58.204Z,4.40
2019-04-16T20:08:46.215Z,4.40
2019-04-16T20:11:14.790Z,4.40
2019-04-16T20:13:43.298Z,4.40
2019-04-16T20:16:11.822Z,4.40
2019-04-16T20:18:50.880Z,4.40
2019-04-16T20:21:10.539Z,4.40
2019-04-16T20:23:39.199Z,4.40
2019-04-16T20:26:08.033Z,4.30
2019-04-16T20:28:36.574Z,4.30
2019-04-16T20:31:05.474Z,4.30
2019-04-16T20:33:34.104Z,4.30
2019-04-16T20:36:02.674Z,4.20
2019-04-16T20:38:31.187Z,4.20
2019-04-16T20:40:59.668Z,4.20
2019-04-16T20:43:28.185Z,4.20
2019-04-16T20:45:57.084Z,4.20
2019-04-16T20:48:25.689Z,4.20
2019-04-16T20:50:58.633Z,4.20
2019-04-16T20:53:24.410Z,4.20
2019-04-16T20:55:52.928Z,4.10
2019-04-16T20:58:21.485Z,4.10
2019-04-16T21:00:51.769Z,4.10
2019-04-16T21:03:22.625Z,4.10
2019-04-16T21:05:57.773Z,4.10
2019-04-16T21:08:24.353Z,4.10
2019-04-16T21:10:50.906Z,4.10
2019-04-16T21:13:19.522Z,4.10
2019-04-16T21:15:48.043Z,4.00
2019-04-16T21:18:16.581Z,4.00
2019-04-16T21:20:45.288Z,4.00
2019-04-16T21:23:13.864Z,4.00
2019-04-16T21:25:42.816Z,4.00
2019-04-16T21:28:23.057Z,4.00
2019-04-16T21:30:53.158Z,3.90
2019-04-16T21:33:26.323Z,3.90
2019-04-16T21:35:56.733Z,3.90
2019-04-16T21:38:38.959Z,3.90
2019-04-16T21:41:07.481Z,3.90
2019-04-16T21:43:39.672Z,3.90
2019-04-16T21:46:06.271Z,3.90
2019-04-16T21:48:34.848Z,3.90
2019-04-16T21:51:03.452Z,3.90
2019-04-16T21:53:32.032Z,3.80
2019-04-16T21:56:00.546Z,3.80
2019-04-16T21:58:29.088Z,3.80
2019-04-16T22:01:08.238Z,3.80
2019-04-16T22:03:41.750Z,3.80
2019-04-16T22:06:07.194Z,3.80
2019-04-16T22:08:35.687Z,3.80
2019-04-16T22:11:04.308Z,3.80
2019-04-16T22:13:32.842Z,3.70
2019-04-16T22:16:01.741Z,3.70
2019-04-16T22:18:30.293Z,3.70
2019-04-16T22:20:58.760Z,3.70
2019-04-16T22:23:27.250Z,3.70
2019-04-16T22:25:57.062Z,3.70
2019-04-16T22:28:25.973Z,3.70
2019-04-16T22:30:54.616Z,3.60
2019-04-16T22:33:23.091Z,3.60
2019-04-16T22:35:51.620Z,3.60
2019-04-16T22:38:20.272Z,3.60
2019-04-16T22:41:05.454Z,3.60
2019-04-16T22:43:39.691Z,3.60
2019-04-16T22:46:10.081Z,3.50
2019-04-16T22:48:40.250Z,3.50
2019-04-16T22:51:10.107Z,3.50
2019-04-16T22:53:39.041Z,3.40
2019-04-16T22:56:07.565Z,3.40
2019-04-16T22:58:48.824Z,3.40
2019-04-16T23:01:38.254Z,3.40
2019-04-16T23:04:07.653Z,3.40
2019-04-16T23:06:38.690Z,3.40
2019-04-16T23:09:08.020Z,3.40
2019-04-16T23:11:38.948Z,3.30
2019-04-16T23:14:06.785Z,3.30
2019-04-16T23:16:35.246Z,3.30
2019-04-16T23:19:03.865Z,3.30
2019-04-16T23:21:32.318Z,3.30
2019-04-16T23:24:00.838Z,3.30
2019-04-16T23:26:32.091Z,3.20
2019-04-16T23:28:59.603Z,3.20
2019-04-16T23:31:28.113Z,3.20
2019-04-16T23:33:56.767Z,3.20
2019-04-16T23:36:25.217Z,3.20
2019-04-16T23:38:53.680Z,3.10
2019-04-16T23:41:22.164Z,3.10
2019-04-16T23:44:10.581Z,3.10
2019-04-16T23:46:56.798Z,3.10
2019-04-16T23:49:39.152Z,3.00
2019-04-16T23:52:15.347Z,3.00
2019-04-16T23:54:48.172Z,3.00
2019-04-16T23:57:27.149Z,3.00
